createdAt,value
2019-04-22T00:02:00.518Z,73.80
2019-04-22T00:04:42.167Z,73.50
2019-04-22T00:07:22.740Z,73.70
2019-04-22T00:09:59.471Z,74.60
2019-04-22T00:12:27.588Z,74.50
2019-04-22T00:14:52.487Z,74.50
2019-04-22T00:17:38.703Z,74.70
2019-04-22T00:20:06.122Z,75.20
2019-04-22T00:22:35.136Z,75.00
2019-04-22T00:25:10.466Z,75.30
2019-04-22T00:27:40.724Z,75.60
2019-04-22T00:30:15.504Z,75.20
2019-04-22T00:32:50.009Z,75.70
2019-04-22T00:35:18.173Z,77.30
2019-04-22T00:37:56.996Z,76.70
2019-04-22T00:40:28.181Z,77.40
2019-04-22T00:45:36.795Z,77.30
2019-04-22T00:48:00.888Z,77.50
2019-04-22T00:50:37.463Z,77.60
2019-04-22T00:53:11.950Z,78.10
2019-04-22T00:55:38.095Z,78.30
2019-04-22T00:58:14.201Z,78.70
2019-04-22T01:00:44.412Z,79.30
2019-04-22T01:03:21.478Z,79.40
2019-04-22T01:05:46.855Z,79.90
2019-04-22T01:08:26.696Z,80.60
2019-04-22T01:10:57.019Z,80.50
2019-04-22T01:13:24.760Z,80.30
2019-04-22T01:16:03.195Z,81.20
2019-04-22T01:18:25.081Z,81.70
2019-04-22T01:23:28.192Z,82.40
2019-04-22T01:25:57.058Z,82.50
2019-04-22T01:28:23.915Z,83.30
2019-04-22T01:30:51.439Z,83.10
2019-04-22T01:33:23.261Z,83.20
2019-04-22T01:36:02.728Z,83.40
2019-04-22T01:38:36.692Z,83.50
2019-04-22T01:41:16.475Z,84.10
2019-04-22T01:43:51.830Z,84.10
2019-04-22T01:46:16.614Z,84.70
2019-04-22T01:48:57.789Z,84.90
2019-04-22T01:51:28.264Z,85.60
2019-04-22T01:53:58.519Z,85.40
2019-04-22T01:56:28.616Z,86.10
2019-04-22T01:58:50.329Z,86.20
2019-04-22T02:01:30.362Z,86.60
2019-04-22T02:04:02.717Z,86.80
2019-04-22T02:06:37.589Z,87.20
2019-04-22T02:09:10.655Z,87.80
2019-04-22T02:11:39.122Z,87.90
2019-04-22T02:14:09.209Z,88.80
2019-04-22T02:19:11.243Z,88.90
2019-04-22T02:21:35.768Z,89.40
2019-04-22T02:24:15.954Z,89.80
2019-04-22T02:26:41.699Z,89.70
2019-04-22T02:29:17.186Z,90.00
2019-04-22T02:31:55.874Z,90.00
2019-04-22T02:34:24.062Z,89.90
2019-04-22T02:36:54.336Z,90.10
2019-04-22T02:41:58.596Z,90.30
2019-04-22T02:44:28.782Z,90.30
2019-04-22T02:49:29.197Z,90.90
2019-04-22T02:52:06.406Z,91.60
2019-04-22T02:57:18.805Z,91.50
2019-04-22T02:59:43.283Z,91.40
2019-04-22T03:02:14.584Z,91.60
2019-04-22T03:04:37.409Z,91.90
2019-04-22T03:07:03.336Z,92.20
2019-04-22T03:09:38.350Z,92.20
2019-04-22T03:12:22.002Z,92.40
2019-04-22T03:17:25.540Z,92.30
2019-04-22T03:19:58.767Z,92.90
2019-04-22T03:27:37.109Z,93.90
2019-04-22T03:30:45.582Z,94.20
2019-04-22T03:37:50.358Z,95.80
2019-04-22T03:42:55.745Z,96.10
2019-04-22T03:48:01.912Z,96.40
2019-04-22T03:50:25.367Z,96.60
2019-04-22T03:53:05.924Z,97.00
2019-04-22T03:57:57.193Z,97.60
2019-04-22T04:08:15.129Z,98.60
2019-04-22T04:10:40.016Z,99.10
2019-04-22T04:13:21.103Z,99.10
2019-04-22T04:15:36.459Z,99.30
2019-04-22T04:18:13.303Z,99.70
2019-04-22T04:26:32.466Z,99.90
2019-04-22T04:31:02.008Z,99.90
2019-04-22T04:33:35.972Z,99.90
2019-04-22T04:36:14.624Z,99.90
2019-04-22T04:38:34.080Z,99.90
2019-04-22T04:41:06.278Z,99.90
2019-04-22T04:43:42.069Z,99.90
2019-04-22T04:46:09.388Z,99.90
2019-04-22T04:51:15.962Z,99.90
2019-04-22T04:53:53.096Z,99.90
2019-04-22T04:56:27.914Z,99.90
2019-04-22T04:58:55.841Z,99.90
2019-04-22T05:01:35.432Z,99.90
2019-04-22T05:03:59.401Z,99.90
2019-04-22T05:06:24.261Z,99.90
2019-04-22T05:11:24.946Z,99.90
2019-04-22T05:18:59.207Z,99.90
2019-04-22T05:21:33.079Z,99.90
2019-04-22T05:24:00.932Z,99.70
2019-04-22T05:26:30.997Z,98.60
2019-04-22T05:29:02.640Z,97.90
2019-04-22T05:31:32.614Z,98.40
2019-04-22T05:33:56.368Z,97.00
2019-04-22T05:36:30.017Z,96.50
2019-04-22T05:39:00.186Z,96.70
2019-04-22T05:41:36.452Z,95.70
2019-04-22T05:44:02.789Z,96.00
2019-04-22T05:46:34.777Z,94.60
2019-04-22T05:49:07.070Z,94.20
2019-04-22T05:51:42.017Z,94.20
2019-04-22T05:59:10.387Z,92.90
2019-04-22T06:01:51.775Z,92.40
2019-04-22T06:04:16.790Z,92.80
2019-04-22T06:06:51.624Z,92.80
2019-04-22T06:11:48.244Z,92.20
2019-04-22T06:14:20.397Z,92.00
2019-04-22T06:17:01.802Z,92.00
2019-04-22T06:19:24.499Z,92.00
2019-04-22T06:21:58.025Z,92.20
2019-04-22T06:24:50.720Z,92.10
2019-04-22T06:27:08.302Z,91.90
2019-04-22T06:29:30.135Z,92.10
2019-04-22T06:32:26.536Z,92.60
2019-04-22T06:37:13.034Z,92.40
2019-04-22T06:39:40.208Z,92.00
2019-04-22T06:42:13.418Z,92.00
2019-04-22T06:44:45.732Z,91.90
2019-04-22T06:47:28.674Z,91.90
2019-04-22T06:49:52.569Z,91.50
2019-04-22T06:52:17.740Z,91.30
2019-04-22T06:54:54.530Z,91.50
2019-04-22T06:57:19.465Z,91.40
2019-04-22T07:00:14.260Z,90.70
2019-04-22T07:02:33.809Z,90.80
2019-04-22T07:04:59.586Z,90.40
2019-04-22T07:07:25.182Z,90.10
2019-04-22T07:10:11.517Z,90.10
2019-04-22T07:12:30.474Z,90.50
2019-04-22T07:15:01.696Z,90.50
2019-04-22T07:17:39.431Z,90.60
2019-04-22T07:20:04.169Z,89.30
2019-04-22T07:22:38.919Z,89.70
2019-04-22T07:25:06.176Z,88.80
2019-04-22T07:27:44.127Z,89.30
2019-04-22T07:30:17.364Z,88.80
2019-04-22T07:33:04.819Z,90.00
2019-04-22T07:35:25.212Z,89.30
2019-04-22T07:37:47.093Z,87.70
2019-04-22T07:40:17.096Z,85.00
2019-04-22T07:42:52.098Z,85.80
2019-04-22T07:45:25.501Z,86.50
2019-04-22T07:50:37.427Z,86.70
2019-04-22T07:52:51.375Z,84.80
2019-04-22T07:55:27.241Z,86.80
2019-04-22T07:57:59.401Z,87.30
2019-04-22T08:00:34.087Z,86.50
2019-04-22T08:05:44.327Z,84.30
2019-04-22T08:08:13.050Z,84.20
2019-04-22T08:13:22.973Z,83.30
2019-04-22T08:18:17.490Z,84.90
2019-04-22T08:20:56.612Z,86.20
2019-04-22T08:23:23.754Z,87.60
2019-04-22T08:25:55.445Z,85.60
2019-04-22T08:28:31.747Z,84.40
2019-04-22T08:31:01.907Z,86.20
2019-04-22T08:33:38.191Z,84.80
2019-04-22T08:36:11.946Z,83.90
2019-04-22T08:38:46.955Z,83.80
2019-04-22T08:41:17.892Z,83.70
2019-04-22T08:43:55.865Z,84.90
2019-04-22T08:46:25.243Z,82.50
2019-04-22T08:48:52.985Z,82.00
2019-04-22T08:56:33.731Z,82.00
2019-04-22T08:59:07.061Z,81.10
2019-04-22T09:01:29.618Z,79.70
2019-04-22T09:04:00.605Z,76.60
2019-04-22T09:06:39.988Z,76.70
2019-04-22T09:09:02.083Z,75.80
2019-04-22T09:11:41.788Z,75.80
2019-04-22T09:16:37.365Z,75.90
2019-04-22T09:19:10.756Z,73.20
2019-04-22T09:21:43.346Z,73.20
2019-04-22T09:24:10.702Z,74.30
2019-04-22T09:26:44.502Z,74.40
2019-04-22T09:29:23.577Z,75.60
2019-04-22T09:31:49.769Z,75.60
2019-04-22T09:34:18.574Z,69.60
2019-04-22T09:36:50.265Z,63.20
2019-04-22T09:39:28.274Z,60.90
2019-04-22T09:41:52.111Z,60.50
2019-04-22T09:44:28.151Z,59.90
2019-04-22T09:46:51.999Z,59.60
2019-04-22T09:49:26.715Z,58.50
2019-04-22T09:52:01.473Z,57.20
2019-04-22T09:54:38.714Z,56.70
2019-04-22T09:57:01.584Z,56.60
2019-04-22T09:59:36.786Z,56.80
2019-04-22T10:02:19.728Z,56.00
2019-04-22T10:04:39.505Z,55.20
2019-04-22T10:07:13.068Z,55.30
2019-04-22T10:12:12.236Z,55.70
2019-04-22T10:14:45.121Z,54.30
2019-04-22T10:17:15.607Z,55.80
2019-04-22T10:19:41.062Z,55.80
2019-04-22T10:22:20.010Z,53.80
2019-04-22T10:24:45.388Z,53.60
2019-04-22T10:27:24.343Z,53.50
2019-04-22T10:29:54.174Z,52.90
2019-04-22T10:32:20.636Z,52.80
2019-04-22T10:34:38.772Z,53.20
2019-04-22T10:37:05.697Z,52.90
2019-04-22T10:39:43.861Z,52.90
2019-04-22T10:42:07.167Z,54.80
2019-04-22T10:44:37.375Z,53.40
2019-04-22T10:47:07.207Z,53.90
2019-04-22T10:49:38.236Z,53.10
2019-04-22T10:52:08.739Z,53.60
2019-04-22T10:54:38.647Z,53.40
2019-04-22T10:57:08.658Z,53.00
2019-04-22T10:59:38.561Z,53.50
2019-04-22T11:02:09.697Z,53.40
2019-04-22T11:04:40.436Z,54.30
2019-04-22T11:07:12.772Z,54.20
2019-04-22T11:09:51.689Z,52.40
2019-04-22T11:12:17.646Z,54.40
2019-04-22T11:14:45.515Z,58.40
2019-04-22T11:17:17.729Z,58.80
2019-04-22T11:19:47.945Z,54.50
2019-04-22T11:22:23.921Z,53.80
2019-04-22T11:24:50.692Z,53.60
2019-04-22T11:27:21.181Z,53.80
2019-04-22T11:29:50.907Z,53.50
2019-04-22T11:32:20.739Z,53.40
2019-04-22T11:34:51.213Z,53.30
2019-04-22T11:37:21.045Z,54.10
2019-04-22T11:40:04.875Z,52.00
2019-04-22T11:42:23.863Z,50.30
2019-04-22T11:44:55.127Z,52.30
2019-04-22T11:47:25.551Z,52.30
2019-04-22T11:49:55.556Z,52.20
2019-04-22T11:52:26.770Z,51.70
2019-04-22T11:54:57.008Z,51.20
2019-04-22T11:57:26.754Z,52.10
2019-04-22T11:59:56.619Z,50.30
2019-04-22T12:02:29.187Z,51.60
2019-04-22T12:04:58.972Z,51.80
2019-04-22T12:07:31.723Z,55.00
2019-04-22T12:10:13.271Z,53.50
2019-04-22T12:12:32.077Z,53.90
2019-04-22T12:15:02.039Z,54.70
2019-04-22T12:17:32.091Z,50.50
2019-04-22T12:20:05.063Z,51.50
2019-04-22T12:22:33.908Z,50.70
2019-04-22T12:25:10.565Z,50.30
2019-04-22T12:27:41.267Z,50.90
2019-04-22T12:30:19.584Z,51.00
2019-04-22T12:32:52.696Z,50.40
2019-04-22T12:35:24.203Z,51.40
2019-04-22T12:37:59.760Z,51.10
2019-04-22T12:40:37.268Z,51.20
2019-04-22T12:42:59.796Z,51.70
2019-04-22T12:45:30.117Z,50.20
2019-04-22T12:48:00.124Z,49.20
2019-04-22T12:50:34.907Z,48.60
2019-04-22T12:53:08.439Z,49.80
2019-04-22T12:55:34.361Z,48.80
2019-04-22T12:58:05.426Z,49.00
2019-04-22T13:00:36.324Z,52.30
2019-04-22T13:03:07.299Z,54.30
2019-04-22T13:05:37.572Z,54.60
2019-04-22T13:08:07.805Z,54.50
2019-04-22T13:10:45.772Z,55.50
2019-04-22T13:13:11.163Z,55.90
2019-04-22T13:15:41.370Z,55.20
2019-04-22T13:18:20.783Z,54.60
2019-04-22T13:20:44.299Z,54.10
2019-04-22T13:23:15.691Z,54.40
2019-04-22T13:25:47.143Z,54.50
2019-04-22T13:28:18.903Z,54.50
2019-04-22T13:30:50.917Z,54.70
2019-04-22T13:33:21.010Z,54.40
2019-04-22T13:35:52.131Z,53.40
2019-04-22T13:38:22.783Z,53.00
2019-04-22T13:41:12.496Z,53.20
2019-04-22T13:43:24.991Z,53.50
2019-04-22T13:45:56.050Z,53.60
2019-04-22T13:48:47.042Z,52.70
2019-04-22T13:54:29.997Z,53.00
2019-04-22T13:56:19.068Z,53.20
2019-04-22T13:58:45.874Z,53.30
2019-04-22T14:01:14.675Z,53.20
2019-04-22T14:04:04.816Z,53.60
2019-04-22T14:06:34.797Z,52.50
2019-04-22T14:09:07.467Z,52.30
2019-04-22T14:11:46.143Z,53.40
2019-04-22T14:14:09.225Z,52.90
2019-04-22T14:16:40.632Z,52.60
2019-04-22T14:19:11.907Z,52.10
2019-04-22T14:21:44.257Z,52.20
2019-04-22T14:24:14.336Z,52.10
2019-04-22T14:27:01.361Z,51.40
2019-04-22T14:29:17.500Z,51.70
2019-04-22T14:31:59.250Z,51.30
2019-04-22T14:34:20.901Z,52.30
2019-04-22T14:36:51.097Z,52.10
2019-04-22T14:39:21.987Z,51.50
2019-04-22T14:42:08.450Z,51.20
2019-04-22T14:45:16.906Z,51.30
2019-04-22T14:47:19.885Z,51.30
2019-04-22T14:49:48.188Z,51.70
2019-04-22T14:52:22.693Z,52.80
2019-04-22T14:54:41.292Z,52.00
2019-04-22T14:57:01.339Z,51.60
2019-04-22T14:59:32.566Z,51.40
2019-04-22T15:02:03.539Z,51.50
2019-04-22T15:04:33.440Z,51.60
2019-04-22T15:07:03.206Z,51.50
2019-04-22T15:09:34.187Z,51.40
2019-04-22T15:12:15.135Z,52.00
2019-04-22T15:14:35.647Z,52.50
2019-04-22T15:17:11.194Z,53.20
2019-04-22T15:19:43.799Z,53.00
2019-04-22T15:22:14.569Z,53.10
2019-04-22T15:24:45.024Z,53.20
2019-04-22T15:27:16.280Z,53.30
2019-04-22T15:29:47.250Z,53.90
2019-04-22T15:32:17.610Z,53.70
2019-04-22T15:34:48.879Z,54.60
2019-04-22T15:37:20.338Z,54.20
2019-04-22T15:39:50.176Z,53.30
2019-04-22T15:42:27.763Z,52.90
2019-04-22T15:44:51.721Z,52.90
2019-04-22T15:47:22.863Z,53.00
2019-04-22T15:49:53.969Z,52.70
2019-04-22T15:52:31.966Z,53.20
2019-04-22T15:54:56.363Z,52.00
2019-04-22T15:57:26.669Z,52.30
2019-04-22T16:00:13.131Z,51.80
2019-04-22T16:02:28.012Z,51.80
2019-04-22T16:04:58.857Z,51.80
2019-04-22T16:07:29.773Z,52.20
2019-04-22T16:09:59.825Z,51.50
2019-04-22T16:12:38.699Z,51.70
2019-04-22T16:15:03.188Z,51.80
2019-04-22T16:17:32.833Z,51.80
2019-04-22T16:20:03.690Z,51.50
2019-04-22T16:22:35.109Z,52.00
2019-04-22T16:25:25.015Z,51.90
2019-04-22T16:27:56.346Z,51.30
2019-04-22T16:30:27.688Z,51.30
2019-04-22T16:33:03.467Z,51.30
2019-04-22T16:35:34.954Z,51.50
2019-04-22T16:38:06.650Z,51.50
2019-04-22T16:40:36.808Z,51.60
2019-04-22T16:43:09.277Z,51.50
2019-04-22T16:45:38.161Z,51.80
2019-04-22T16:48:09.274Z,51.70
2019-04-22T16:50:42.841Z,51.70
2019-04-22T16:53:10.648Z,52.10
2019-04-22T16:55:41.044Z,52.20
2019-04-22T16:58:12.716Z,51.60
2019-04-22T17:00:43.128Z,50.80
2019-04-22T17:03:24.888Z,51.10
2019-04-22T17:06:09.830Z,51.10
2019-04-22T17:08:39.953Z,51.50
2019-04-22T17:11:09.953Z,51.30
2019-04-22T17:13:41.885Z,51.70
2019-04-22T17:16:11.948Z,52.90
2019-04-22T17:18:43.423Z,51.80
2019-04-22T17:21:14.662Z,51.90
2019-04-22T17:23:45.718Z,51.60
2019-04-22T17:26:16.741Z,51.70
2019-04-22T17:28:46.752Z,51.50
2019-04-22T17:31:16.596Z,51.40
2019-04-22T17:33:46.756Z,51.10
2019-04-22T17:36:18.206Z,53.20
2019-04-22T17:38:55.025Z,51.00
2019-04-22T17:41:30.262Z,52.10
2019-04-22T17:44:18.960Z,51.10
2019-04-22T17:46:40.270Z,51.00
2019-04-22T17:49:27.942Z,51.00
2019-04-22T17:52:10.802Z,50.90
2019-04-22T17:54:46.851Z,51.20
2019-04-22T17:57:09.972Z,51.20
2019-04-22T17:59:44.668Z,51.40
2019-04-22T18:02:16.741Z,51.60
2019-04-22T18:04:33.731Z,51.30
2019-04-22T18:07:24.834Z,51.70
2019-04-22T18:10:16.473Z,51.90
2019-04-22T18:12:34.017Z,52.90
2019-04-22T18:15:00.984Z,52.50
2019-04-22T18:17:30.572Z,52.70
2019-04-22T18:19:54.581Z,53.10
2019-04-22T18:22:21.842Z,53.50
2019-04-22T18:24:55.973Z,54.00
2019-04-22T18:30:00.017Z,55.20
2019-04-22T18:32:35.821Z,55.50
2019-04-22T18:35:07.257Z,55.90
2019-04-22T18:37:41.364Z,56.10
2019-04-22T18:40:11.705Z,56.20
2019-04-22T18:42:46.342Z,56.30
2019-04-22T18:45:29.674Z,57.20
2019-04-22T18:47:38.945Z,56.50
2019-04-22T18:50:22.015Z,56.40
2019-04-22T18:53:10.932Z,56.60
2019-04-22T18:55:35.205Z,56.60
2019-04-22T18:58:08.496Z,56.60
2019-04-22T19:00:41.844Z,56.60
2019-04-22T19:03:19.608Z,56.80
2019-04-22T19:06:11.791Z,56.70
2019-04-22T19:08:36.414Z,56.80
2019-04-22T19:11:20.980Z,56.60
2019-04-22T19:13:56.139Z,56.70
2019-04-22T19:16:25.784Z,56.40
2019-04-22T19:18:50.203Z,56.20
2019-04-22T19:21:14.955Z,56.00
2019-04-22T19:23:50.570Z,56.10
2019-04-22T19:26:32.421Z,55.50
2019-04-22T19:28:49.778Z,55.40
2019-04-22T19:31:24.664Z,55.30
2019-04-22T19:33:53.697Z,55.50
2019-04-22T19:36:26.116Z,55.40
2019-04-22T19:38:52.579Z,55.60
2019-04-22T19:41:29.214Z,55.70
2019-04-22T19:44:05.498Z,55.50
2019-04-22T19:46:28.679Z,55.60
2019-04-22T19:49:06.997Z,55.50
2019-04-22T19:51:57.295Z,55.30
2019-04-22T19:54:01.503Z,55.10
2019-04-22T19:56:28.231Z,55.00
2019-04-22T19:59:08.767Z,54.90
2019-04-22T20:01:54.179Z,54.90
2019-04-22T20:04:41.699Z,55.10
2019-04-22T20:07:08.399Z,54.70
2019-04-22T20:09:46.690Z,55.40
2019-04-22T20:12:15.140Z,54.70
2019-04-22T20:14:46.375Z,54.40
2019-04-22T20:17:19.834Z,54.50
2019-04-22T20:22:17.680Z,54.30
2019-04-22T20:24:44.792Z,54.10
2019-04-22T20:27:28.545Z,53.60
2019-04-22T20:30:13.218Z,53.70
2019-04-22T20:32:27.881Z,53.40
2019-04-22T20:35:02.972Z,53.60
2019-04-22T20:37:35.475Z,53.50
2019-04-22T20:40:00.502Z,53.40
2019-04-22T20:45:03.980Z,53.10
2019-04-22T20:47:30.633Z,53.40
2019-04-22T20:50:05.277Z,53.20
2019-04-22T20:52:50.519Z,53.40
2019-04-22T20:55:07.777Z,53.40
2019-04-22T20:57:48.450Z,53.30
2019-04-22T21:00:11.659Z,53.10
2019-04-22T21:02:37.640Z,53.30
2019-04-22T21:05:03.258Z,53.00
2019-04-22T21:07:52.967Z,53.30
2019-04-22T21:10:15.854Z,53.10
2019-04-22T21:12:39.995Z,53.70
2019-04-22T21:15:26.251Z,53.10
2019-04-22T21:17:53.793Z,53.30
2019-04-22T21:20:31.803Z,53.40
2019-04-22T21:22:56.259Z,53.50
2019-04-22T21:25:24.005Z,53.60
2019-04-22T21:28:04.862Z,53.90
2019-04-22T21:30:32.027Z,53.90
2019-04-22T21:32:58.238Z,54.00
2019-04-22T21:38:08.759Z,54.20
2019-04-22T21:40:39.498Z,54.20
2019-04-22T21:43:13.644Z,54.00
2019-04-22T21:45:37.628Z,53.90
2019-04-22T21:53:25.145Z,54.50
2019-04-22T21:56:03.957Z,54.40
2019-04-22T21:58:49.433Z,55.00
2019-04-22T22:01:29.137Z,55.20
2019-04-22T22:03:55.153Z,55.30
2019-04-22T22:06:16.617Z,55.20
2019-04-22T22:08:56.866Z,55.50
2019-04-22T22:11:26.054Z,55.50
2019-04-22T22:13:58.766Z,55.70
2019-04-22T22:16:23.352Z,55.70
2019-04-22T22:19:04.292Z,55.80
2019-04-22T22:21:43.901Z,55.90
2019-04-22T22:24:10.080Z,56.20
2019-04-22T22:26:40.702Z,56.30
2019-04-22T22:29:09.767Z,56.40
2019-04-22T22:31:40.243Z,56.50
2019-04-22T22:34:13.623Z,56.60
2019-04-22T22:36:36.868Z,57.00
2019-04-22T22:39:07.629Z,57.00
2019-04-22T22:41:23.972Z,57.30
2019-04-22T22:44:03.239Z,57.50
2019-04-22T22:46:34.173Z,57.60
2019-04-22T22:49:22.895Z,57.80
2019-04-22T22:52:11.691Z,57.90
2019-04-22T22:54:26.948Z,57.80
2019-04-22T22:59:30.006Z,58.40
2019-04-22T23:01:54.395Z,59.20
2019-04-22T23:04:37.273Z,59.20
2019-04-22T23:07:09.340Z,59.40
2019-04-22T23:09:30.712Z,59.60
2019-04-22T23:14:31.126Z,60.10
2019-04-22T23:16:52.875Z,60.40
2019-04-22T23:19:15.886Z,60.70
2019-04-22T23:21:49.470Z,61.00
2019-04-22T23:24:58.155Z,61.20
2019-04-22T23:27:34.591Z,61.40
2019-04-22T23:30:08.892Z,61.80
2019-04-22T23:32:42.651Z,62.20
2019-04-22T23:35:29.299Z,62.40
2019-04-22T23:37:59.613Z,62.50
2019-04-22T23:40:34.384Z,63.10
2019-04-22T23:43:09.421Z,63.30
2019-04-22T23:45:43.325Z,63.50
2019-04-22T23:48:05.841Z,63.70
2019-04-22T23:50:37.764Z,64.40
2019-04-22T23:53:31.626Z,64.80
2019-04-22T23:55:51.203Z,64.90
2019-04-22T23:58:34.950Z,65.40
